sensor_id;sensor_type;location;lat;lon;timestamp;temperature;humidity
79571;DHT22;69034;49.444;7.758;2023-11-19T00:01:36;11.70;75.20
79571;DHT22;69034;49.444;7.758;2023-11-19T00:05:37;11.60;75.20
79571;DHT22;69034;49.444;7.758;2023-11-19T00:09:37;11.60;75.30
79571;DHT22;69034;49.444;7.758;2023-11-19T00:13:39;11.60;75.40
79571;DHT22;69034;49.444;7.758;2023-11-19T00:17:45;11.60;75.40
79571;DHT22;69034;49.444;7.758;2023-11-19T00:21:46;11.50;75.40
79571;DHT22;69034;49.444;7.758;2023-11-19T00:25:46;11.50;75.60
79571;DHT22;69034;49.444;7.758;2023-11-19T00:29:48;11.50;75.60
79571;DHT22;69034;49.444;7.758;2023-11-19T00:33:49;11.50;75.70
79571;DHT22;69034;49.444;7.758;2023-11-19T00:37:51;11.50;75.80
79571;DHT22;69034;49.444;7.758;2023-11-19T00:41:54;11.50;75.80
79571;DHT22;69034;49.444;7.758;2023-11-19T00:45:54;11.50;75.90
79571;DHT22;69034;49.444;7.758;2023-11-19T00:49:55;11.50;75.90
79571;DHT22;69034;49.444;7.758;2023-11-19T00:53:56;11.50;75.90
79571;DHT22;69034;49.444;7.758;2023-11-19T00:57:56;11.50;76.00
79571;DHT22;69034;49.444;7.758;2023-11-19T01:01:57;11.50;76.00
79571;DHT22;69034;49.444;7.758;2023-11-19T01:05:57;11.50;76.10
79571;DHT22;69034;49.444;7.758;2023-11-19T01:10:00;11.50;76.20
79571;DHT22;69034;49.444;7.758;2023-11-19T01:14:01;11.50;76.20
79571;DHT22;69034;49.444;7.758;2023-11-19T01:18:01;11.50;76.20
79571;DHT22;69034;49.444;7.758;2023-11-19T01:22:05;11.50;76.20
79571;DHT22;69034;49.444;7.758;2023-11-19T01:26:05;11.50;76.30
79571;DHT22;69034;49.444;7.758;2023-11-19T01:30:07;11.50;76.30
79571;DHT22;69034;49.444;7.758;2023-11-19T01:34:10;11.50;76.30
79571;DHT22;69034;49.444;7.758;2023-11-19T01:38:11;11.50;76.40
79571;DHT22;69034;49.444;7.758;2023-11-19T01:42:12;11.50;76.40
79571;DHT22;69034;49.444;7.758;2023-11-19T01:46:13;11.50;76.40
79571;DHT22;69034;49.444;7.758;2023-11-19T01:50:14;11.50;76.50
79571;DHT22;69034;49.444;7.758;2023-11-19T01:54:15;11.50;76.50
79571;DHT22;69034;49.444;7.758;2023-11-19T01:58:16;11.50;76.60
79571;DHT22;69034;49.444;7.758;2023-11-19T02:02:17;11.50;76.50
79571;DHT22;69034;49.444;7.758;2023-11-19T02:06:21;11.50;76.60
79571;DHT22;69034;49.444;7.758;2023-11-19T02:10:21;11.50;76.70
79571;DHT22;69034;49.444;7.758;2023-11-19T02:14:25;11.50;76.80
79571;DHT22;69034;49.444;7.758;2023-11-19T02:18:27;11.50;76.80
79571;DHT22;69034;49.444;7.758;2023-11-19T02:22:28;11.50;76.80
79571;DHT22;69034;49.444;7.758;2023-11-19T02:30:59;11.60;76.90
79571;DHT22;69034;49.444;7.758;2023-11-19T02:35:00;11.60;76.80
79571;DHT22;69034;49.444;7.758;2023-11-19T02:39:00;11.60;76.90
79571;DHT22;69034;49.444;7.758;2023-11-19T02:43:01;11.60;77.00
79571;DHT22;69034;49.444;7.758;2023-11-19T02:47:05;11.60;77.00
79571;DHT22;69034;49.444;7.758;2023-11-19T02:51:08;11.60;77.10
79571;DHT22;69034;49.444;7.758;2023-11-19T02:55:10;11.60;77.10
79571;DHT22;69034;49.444;7.758;2023-11-19T02:59:13;11.70;77.20
79571;DHT22;69034;49.444;7.758;2023-11-19T03:03:27;11.70;77.30
79571;DHT22;69034;49.444;7.758;2023-11-19T03:07:38;11.80;77.60
79571;DHT22;69034;49.444;7.758;2023-11-19T03:11:39;12.00;77.50
79571;DHT22;69034;49.444;7.758;2023-11-19T03:15:40;12.20;77.30
79571;DHT22;69034;49.444;7.758;2023-11-19T03:19:41;12.40;77.20
79571;DHT22;69034;49.444;7.758;2023-11-19T03:23:41;12.50;77.00
79571;DHT22;69034;49.444;7.758;2023-11-19T03:27:43;12.60;76.70
79571;DHT22;69034;49.444;7.758;2023-11-19T03:31:44;12.70;76.70
79571;DHT22;69034;49.444;7.758;2023-11-19T03:35:45;12.80;76.80
79571;DHT22;69034;49.444;7.758;2023-11-19T03:39:46;12.80;76.70
79571;DHT22;69034;49.444;7.758;2023-11-19T03:43:47;12.90;76.70
79571;DHT22;69034;49.444;7.758;2023-11-19T03:47:47;12.90;76.70
79571;DHT22;69034;49.444;7.758;2023-11-19T03:51:50;13.00;76.80
79571;DHT22;69034;49.444;7.758;2023-11-19T03:55:50;13.00;76.70
79571;DHT22;69034;49.444;7.758;2023-11-19T03:59:51;13.10;76.90
79571;DHT22;69034;49.444;7.758;2023-11-19T04:03:51;13.10;76.90
79571;DHT22;69034;49.444;7.758;2023-11-19T04:07:52;13.10;77.20
79571;DHT22;69034;49.444;7.758;2023-11-19T04:11:53;13.10;77.10
79571;DHT22;69034;49.444;7.758;2023-11-19T04:15:53;13.00;77.30
79571;DHT22;69034;49.444;7.758;2023-11-19T04:19:54;12.80;77.60
79571;DHT22;69034;49.444;7.758;2023-11-19T04:23:55;12.70;77.90
79571;DHT22;69034;49.444;7.758;2023-11-19T04:27:55;12.70;78.00
79571;DHT22;69034;49.444;7.758;2023-11-19T04:31:56;12.60;78.20
79571;DHT22;69034;49.444;7.758;2023-11-19T04:35:56;12.60;78.40
79571;DHT22;69034;49.444;7.758;2023-11-19T04:39:57;12.50;78.50
79571;DHT22;69034;49.444;7.758;2023-11-19T04:43:58;12.50;78.60
79571;DHT22;69034;49.444;7.758;2023-11-19T04:47:58;12.50;78.70
79571;DHT22;69034;49.444;7.758;2023-11-19T04:51:59;12.50;78.80
79571;DHT22;69034;49.444;7.758;2023-11-19T04:55:59;12.50;78.80
79571;DHT22;69034;49.444;7.758;2023-11-19T05:00:00;12.40;78.90
79571;DHT22;69034;49.444;7.758;2023-11-19T05:04:01;12.50;78.90
79571;DHT22;69034;49.444;7.758;2023-11-19T05:08:02;12.50;79.00
79571;DHT22;69034;49.444;7.758;2023-11-19T05:12:03;12.50;79.10
79571;DHT22;69034;49.444;7.758;2023-11-19T05:16:04;12.50;79.10
79571;DHT22;69034;49.444;7.758;2023-11-19T05:20:05;12.50;79.20
79571;DHT22;69034;49.444;7.758;2023-11-19T05:24:13;12.50;79.40
79571;DHT22;69034;49.444;7.758;2023-11-19T05:28:14;12.50;79.50
79571;DHT22;69034;49.444;7.758;2023-11-19T05:32:15;12.50;79.50
79571;DHT22;69034;49.444;7.758;2023-11-19T05:36:15;12.50;79.70
79571;DHT22;69034;49.444;7.758;2023-11-19T05:40:16;12.50;79.80
79571;DHT22;69034;49.444;7.758;2023-11-19T05:44:17;12.50;80.00
79571;DHT22;69034;49.444;7.758;2023-11-19T05:48:19;12.60;80.00
79571;DHT22;69034;49.444;7.758;2023-11-19T05:52:19;12.60;80.00
79571;DHT22;69034;49.444;7.758;2023-11-19T05:56:22;12.60;80.00
79571;DHT22;69034;49.444;7.758;2023-11-19T06:00:23;12.60;80.20
79571;DHT22;69034;49.444;7.758;2023-11-19T06:04:23;12.60;80.20
79571;DHT22;69034;49.444;7.758;2023-11-19T06:08:24;12.60;80.30
79571;DHT22;69034;49.444;7.758;2023-11-19T06:12:27;12.70;80.40
79571;DHT22;69034;49.444;7.758;2023-11-19T06:16:28;12.70;80.50
79571;DHT22;69034;49.444;7.758;2023-11-19T06:20:29;12.80;80.10
79571;DHT22;69034;49.444;7.758;2023-11-19T06:24:30;12.80;80.10
79571;DHT22;69034;49.444;7.758;2023-11-19T06:28:31;12.80;80.20
79571;DHT22;69034;49.444;7.758;2023-11-19T06:32:32;12.80;80.30
79571;DHT22;69034;49.444;7.758;2023-11-19T06:36:33;12.80;80.40
79571;DHT22;69034;49.444;7.758;2023-11-19T06:40:34;12.80;80.40
79571;DHT22;69034;49.444;7.758;2023-11-19T06:44:38;12.80;80.40
79571;DHT22;69034;49.444;7.758;2023-11-19T06:48:38;12.80;80.30
79571;DHT22;69034;49.444;7.758;2023-11-19T06:52:39;12.80;80.40
79571;DHT22;69034;49.444;7.758;2023-11-19T06:56:40;12.80;80.40
79571;DHT22;69034;49.444;7.758;2023-11-19T07:00:42;12.90;80.40
79571;DHT22;69034;49.444;7.758;2023-11-19T07:04:42;12.90;80.40
79571;DHT22;69034;49.444;7.758;2023-11-19T07:08:43;12.90;80.30
79571;DHT22;69034;49.444;7.758;2023-11-19T07:12:45;12.90;80.40
79571;DHT22;69034;49.444;7.758;2023-11-19T07:16:45;12.90;80.50
79571;DHT22;69034;49.444;7.758;2023-11-19T07:20:46;12.90;80.40
79571;DHT22;69034;49.444;7.758;2023-11-19T07:24:47;13.00;80.60
79571;DHT22;69034;49.444;7.758;2023-11-19T07:28:48;13.10;80.70
79571;DHT22;69034;49.444;7.758;2023-11-19T07:32:49;13.30;80.60
79571;DHT22;69034;49.444;7.758;2023-11-19T07:36:50;13.50;80.30
79571;DHT22;69034;49.444;7.758;2023-11-19T07:40:51;13.80;79.80
79571;DHT22;69034;49.444;7.758;2023-11-19T07:44:51;14.00;79.50
79571;DHT22;69034;49.444;7.758;2023-11-19T07:48:52;14.20;79.20
79571;DHT22;69034;49.444;7.758;2023-11-19T07:52:53;14.40;78.80
79571;DHT22;69034;49.444;7.758;2023-11-19T07:56:53;14.60;78.40
79571;DHT22;69034;49.444;7.758;2023-11-19T08:00:54;14.80;78.00
79571;DHT22;69034;49.444;7.758;2023-11-19T08:04:55;15.00;77.80
79571;DHT22;69034;49.444;7.758;2023-11-19T08:08:56;15.10;77.60
79571;DHT22;69034;49.444;7.758;2023-11-19T08:12:56;15.30;77.30
79571;DHT22;69034;49.444;7.758;2023-11-19T08:16:57;15.50;77.00
79571;DHT22;69034;49.444;7.758;2023-11-19T08:20:58;15.50;77.10
79571;DHT22;69034;49.444;7.758;2023-11-19T08:25:02;15.40;77.20
79571;DHT22;69034;49.444;7.758;2023-11-19T08:29:04;15.50;77.10
79571;DHT22;69034;49.444;7.758;2023-11-19T08:33:05;15.50;77.00
79571;DHT22;69034;49.444;7.758;2023-11-19T08:37:07;15.60;77.00
79571;DHT22;69034;49.444;7.758;2023-11-19T08:41:07;15.50;77.00
79571;DHT22;69034;49.444;7.758;2023-11-19T08:45:08;15.60;76.70
79571;DHT22;69034;49.444;7.758;2023-11-19T08:49:12;15.70;76.80
79571;DHT22;69034;49.444;7.758;2023-11-19T08:53:12;15.80;76.80
79571;DHT22;69034;49.444;7.758;2023-11-19T08:57:13;16.00;76.30
79571;DHT22;69034;49.444;7.758;2023-11-19T09:01:14;16.30;76.00
79571;DHT22;69034;49.444;7.758;2023-11-19T09:05:15;16.30;76.00
79571;DHT22;69034;49.444;7.758;2023-11-19T09:09:15;16.30;76.10
79571;DHT22;69034;49.444;7.758;2023-11-19T09:13:16;16.40;76.10
79571;DHT22;69034;49.444;7.758;2023-11-19T09:17:17;16.50;75.60
79571;DHT22;69034;49.444;7.758;2023-11-19T09:21:18;16.70;75.30
79571;DHT22;69034;49.444;7.758;2023-11-19T09:25:19;16.90;74.90
79571;DHT22;69034;49.444;7.758;2023-11-19T09:29:20;16.90;75.00
79571;DHT22;69034;49.444;7.758;2023-11-19T09:33:21;16.90;75.10
79571;DHT22;69034;49.444;7.758;2023-11-19T09:37:22;16.80;75.20
79571;DHT22;69034;49.444;7.758;2023-11-19T09:41:24;16.70;75.20
79571;DHT22;69034;49.444;7.758;2023-11-19T09:45:27;16.70;74.90
79571;DHT22;69034;49.444;7.758;2023-11-19T09:49:28;16.60;74.90
79571;DHT22;69034;49.444;7.758;2023-11-19T09:53:30;16.60;74.90
79571;DHT22;69034;49.444;7.758;2023-11-19T09:57:32;16.60;74.50
79571;DHT22;69034;49.444;7.758;2023-11-19T10:01:35;16.50;74.70
79571;DHT22;69034;49.444;7.758;2023-11-19T10:05:36;16.40;74.70
79571;DHT22;69034;49.444;7.758;2023-11-19T10:09:39;16.40;74.60
79571;DHT22;69034;49.444;7.758;2023-11-19T10:13:39;16.40;74.50
79571;DHT22;69034;49.444;7.758;2023-11-19T10:17:41;16.60;73.90
79571;DHT22;69034;49.444;7.758;2023-11-19T10:21:42;16.90;73.50
79571;DHT22;69034;49.444;7.758;2023-11-19T10:25:42;17.00;73.40
79571;DHT22;69034;49.444;7.758;2023-11-19T10:29:46;16.90;73.60
79571;DHT22;69034;49.444;7.758;2023-11-19T10:33:47;16.80;73.80
79571;DHT22;69034;49.444;7.758;2023-11-19T10:37:48;16.70;74.10
79571;DHT22;69034;49.444;7.758;2023-11-19T10:41:49;16.90;73.40
79571;DHT22;69034;49.444;7.758;2023-11-19T10:45:50;16.70;74.00
79571;DHT22;69034;49.444;7.758;2023-11-19T10:49:51;16.90;73.60
79571;DHT22;69034;49.444;7.758;2023-11-19T10:53:53;17.40;72.40
79571;DHT22;69034;49.444;7.758;2023-11-19T10:58:06;18.00;71.30
79571;DHT22;69034;49.444;7.758;2023-11-19T11:02:09;18.30;71.40
79571;DHT22;69034;49.444;7.758;2023-11-19T11:06:10;18.20;71.50
79571;DHT22;69034;49.444;7.758;2023-11-19T11:10:11;18.10;71.50
79571;DHT22;69034;49.444;7.758;2023-11-19T11:14:13;17.90;71.20
79571;DHT22;69034;49.444;7.758;2023-11-19T11:18:17;18.00;70.70
79571;DHT22;69034;49.444;7.758;2023-11-19T11:22:22;18.00;70.10
79571;DHT22;69034;49.444;7.758;2023-11-19T11:30:49;17.90;69.60
79571;DHT22;69034;49.444;7.758;2023-11-19T11:35:17;17.90;69.30
79571;DHT22;69034;49.444;7.758;2023-11-19T11:39:24;18.00;68.70
79571;DHT22;69034;49.444;7.758;2023-11-19T11:43:48;18.20;68.20
79571;DHT22;69034;49.444;7.758;2023-11-19T11:55:59;18.80;66.30
79571;DHT22;69034;49.444;7.758;2023-11-19T12:00:02;18.90;66.20
79571;DHT22;69034;49.444;7.758;2023-11-19T12:04:05;19.30;65.50
79571;DHT22;69034;49.444;7.758;2023-11-19T12:08:07;19.50;64.90
79571;DHT22;69034;49.444;7.758;2023-11-19T12:16:20;19.50;64.40
79571;DHT22;69034;49.444;7.758;2023-11-19T12:20:25;19.50;64.50
79571;DHT22;69034;49.444;7.758;2023-11-19T12:24:26;19.70;63.50
79571;DHT22;69034;49.444;7.758;2023-11-19T12:28:27;19.70;63.30
79571;DHT22;69034;49.444;7.758;2023-11-19T12:32:37;19.90;62.90
79571;DHT22;69034;49.444;7.758;2023-11-19T12:36:38;19.80;62.90
79571;DHT22;69034;49.444;7.758;2023-11-19T12:40:39;19.50;63.40
79571;DHT22;69034;49.444;7.758;2023-11-19T12:44:39;19.30;63.80
79571;DHT22;69034;49.444;7.758;2023-11-19T12:48:41;19.30;63.80
79571;DHT22;69034;49.444;7.758;2023-11-19T12:52:42;19.40;63.40
79571;DHT22;69034;49.444;7.758;2023-11-19T12:56:55;19.70;62.50
79571;DHT22;69034;49.444;7.758;2023-11-19T13:01:06;19.80;61.40
79571;DHT22;69034;49.444;7.758;2023-11-19T13:05:33;19.80;61.30
79571;DHT22;69034;49.444;7.758;2023-11-19T13:09:34;20.00;60.70
79571;DHT22;69034;49.444;7.758;2023-11-19T13:14:03;19.90;61.10
79571;DHT22;69034;49.444;7.758;2023-11-19T13:18:12;19.60;61.20
79571;DHT22;69034;49.444;7.758;2023-11-19T13:22:14;19.30;61.70
79571;DHT22;69034;49.444;7.758;2023-11-19T13:26:15;19.00;61.90
79571;DHT22;69034;49.444;7.758;2023-11-19T13:30:16;18.80;61.90
79571;DHT22;69034;49.444;7.758;2023-11-19T13:34:17;18.80;61.90
79571;DHT22;69034;49.444;7.758;2023-11-19T13:38:17;18.90;61.60
79571;DHT22;69034;49.444;7.758;2023-11-19T13:42:18;19.10;61.10
79571;DHT22;69034;49.444;7.758;2023-11-19T13:46:18;19.20;61.20
79571;DHT22;69034;49.444;7.758;2023-11-19T13:50:19;19.20;61.10
79571;DHT22;69034;49.444;7.758;2023-11-19T13:54:20;19.00;61.10
79571;DHT22;69034;49.444;7.758;2023-11-19T13:58:21;18.80;61.20
79571;DHT22;69034;49.444;7.758;2023-11-19T14:02:22;18.60;61.40
79571;DHT22;69034;49.444;7.758;2023-11-19T14:06:23;18.40;61.50
79571;DHT22;69034;49.444;7.758;2023-11-19T14:10:23;18.30;61.40
79571;DHT22;69034;49.444;7.758;2023-11-19T14:14:24;18.20;61.30
79571;DHT22;69034;49.444;7.758;2023-11-19T14:18:25;18.00;61.50
79571;DHT22;69034;49.444;7.758;2023-11-19T14:22:25;17.90;61.70
79571;DHT22;69034;49.444;7.758;2023-11-19T14:26:26;17.70;62.00
79571;DHT22;69034;49.444;7.758;2023-11-19T14:30:26;17.60;62.20
79571;DHT22;69034;49.444;7.758;2023-11-19T14:34:27;17.50;62.40
79571;DHT22;69034;49.444;7.758;2023-11-19T14:38:28;17.30;62.60
79571;DHT22;69034;49.444;7.758;2023-11-19T14:42:28;17.30;62.70
79571;DHT22;69034;49.444;7.758;2023-11-19T14:46:29;17.30;62.60
79571;DHT22;69034;49.444;7.758;2023-11-19T14:50:30;17.40;62.60
79571;DHT22;69034;49.444;7.758;2023-11-19T14:54:30;17.40;62.50
79571;DHT22;69034;49.444;7.758;2023-11-19T14:58:31;17.40;62.80
79571;DHT22;69034;49.444;7.758;2023-11-19T15:02:31;17.30;62.70
79571;DHT22;69034;49.444;7.758;2023-11-19T15:06:32;17.30;62.70
79571;DHT22;69034;49.444;7.758;2023-11-19T15:10:34;17.40;62.40
79571;DHT22;69034;49.444;7.758;2023-11-19T15:14:34;17.40;62.60
79571;DHT22;69034;49.444;7.758;2023-11-19T15:18:35;17.30;62.60
79571;DHT22;69034;49.444;7.758;2023-11-19T15:22:35;17.20;62.60
79571;DHT22;69034;49.444;7.758;2023-11-19T15:26:37;17.10;62.70
79571;DHT22;69034;49.444;7.758;2023-11-19T15:30:38;17.10;62.90
79571;DHT22;69034;49.444;7.758;2023-11-19T15:34:38;17.00;62.90
79571;DHT22;69034;49.444;7.758;2023-11-19T15:38:41;16.80;63.00
79571;DHT22;69034;49.444;7.758;2023-11-19T15:42:42;16.70;63.00
79571;DHT22;69034;49.444;7.758;2023-11-19T15:46:47;16.60;63.10
79571;DHT22;69034;49.444;7.758;2023-11-19T15:50:47;16.40;63.20
79571;DHT22;69034;49.444;7.758;2023-11-19T15:54:48;16.20;63.60
79571;DHT22;69034;49.444;7.758;2023-11-19T15:58:49;15.90;64.10
79571;DHT22;69034;49.444;7.758;2023-11-19T16:02:50;15.70;64.50
79571;DHT22;69034;49.444;7.758;2023-11-19T16:06:50;15.50;64.80
79571;DHT22;69034;49.444;7.758;2023-11-19T16:10:51;15.40;65.10
79571;DHT22;69034;49.444;7.758;2023-11-19T16:14:52;15.20;65.50
79571;DHT22;69034;49.444;7.758;2023-11-19T16:18:52;15.10;65.60
79571;DHT22;69034;49.444;7.758;2023-11-19T16:22:53;15.00;65.90
79571;DHT22;69034;49.444;7.758;2023-11-19T16:26:53;15.00;66.10
79571;DHT22;69034;49.444;7.758;2023-11-19T16:30:54;14.90;66.40
79571;DHT22;69034;49.444;7.758;2023-11-19T16:34:55;14.80;66.50
79571;DHT22;69034;49.444;7.758;2023-11-19T16:38:56;14.80;66.80
79571;DHT22;69034;49.444;7.758;2023-11-19T16:42:56;14.80;66.90
79571;DHT22;69034;49.444;7.758;2023-11-19T16:46:58;14.70;67.10
79571;DHT22;69034;49.444;7.758;2023-11-19T16:50:58;14.70;67.20
79571;DHT22;69034;49.444;7.758;2023-11-19T16:54:59;14.70;67.30
79571;DHT22;69034;49.444;7.758;2023-11-19T16:59:01;14.60;67.40
79571;DHT22;69034;49.444;7.758;2023-11-19T17:03:03;14.60;67.60
79571;DHT22;69034;49.444;7.758;2023-11-19T17:07:05;14.60;67.70
79571;DHT22;69034;49.444;7.758;2023-11-19T17:11:05;14.50;67.70
79571;DHT22;69034;49.444;7.758;2023-11-19T17:15:06;14.50;68.10
79571;DHT22;69034;49.444;7.758;2023-11-19T17:19:07;14.50;68.20
79571;DHT22;69034;49.444;7.758;2023-11-19T17:23:08;14.40;68.50
79571;DHT22;69034;49.444;7.758;2023-11-19T17:27:09;14.30;68.50
79571;DHT22;69034;49.444;7.758;2023-11-19T17:31:09;14.20;68.60
79571;DHT22;69034;49.444;7.758;2023-11-19T17:35:10;14.20;68.70
79571;DHT22;69034;49.444;7.758;2023-11-19T17:39:11;14.10;68.90
79571;DHT22;69034;49.444;7.758;2023-11-19T17:43:11;14.10;68.90
79571;DHT22;69034;49.444;7.758;2023-11-19T17:47:12;14.00;69.10
79571;DHT22;69034;49.444;7.758;2023-11-19T17:51:13;14.00;69.10
79571;DHT22;69034;49.444;7.758;2023-11-19T17:55:17;14.00;69.10
79571;DHT22;69034;49.444;7.758;2023-11-19T17:59:18;14.00;69.10
79571;DHT22;69034;49.444;7.758;2023-11-19T18:03:24;14.00;69.10
79571;DHT22;69034;49.444;7.758;2023-11-19T18:07:25;13.90;69.10
79571;DHT22;69034;49.444;7.758;2023-11-19T18:11:25;13.80;69.30
79571;DHT22;69034;49.444;7.758;2023-11-19T18:15:26;13.70;69.30
79571;DHT22;69034;49.444;7.758;2023-11-19T18:19:26;13.70;69.50
79571;DHT22;69034;49.444;7.758;2023-11-19T18:23:27;13.90;69.50
79571;DHT22;69034;49.444;7.758;2023-11-19T18:27:28;14.00;69.10
79571;DHT22;69034;49.444;7.758;2023-11-19T18:31:29;14.20;68.70
79571;DHT22;69034;49.444;7.758;2023-11-19T18:35:29;14.30;68.40
79571;DHT22;69034;49.444;7.758;2023-11-19T18:39:30;14.30;68.20
79571;DHT22;69034;49.444;7.758;2023-11-19T18:43:32;14.40;68.10
79571;DHT22;69034;49.444;7.758;2023-11-19T18:47:32;14.40;68.00
79571;DHT22;69034;49.444;7.758;2023-11-19T18:51:33;14.50;68.20
79571;DHT22;69034;49.444;7.758;2023-11-19T18:55:34;14.60;68.10
79571;DHT22;69034;49.444;7.758;2023-11-19T18:59:35;14.50;68.00
79571;DHT22;69034;49.444;7.758;2023-11-19T19:03:38;14.60;67.90
79571;DHT22;69034;49.444;7.758;2023-11-19T19:07:38;14.60;67.80
79571;DHT22;69034;49.444;7.758;2023-11-19T19:11:40;14.60;67.70
79571;DHT22;69034;49.444;7.758;2023-11-19T19:15:41;14.60;67.60
79571;DHT22;69034;49.444;7.758;2023-11-19T19:19:41;14.60;67.50
79571;DHT22;69034;49.444;7.758;2023-11-19T19:23:42;14.70;67.30
79571;DHT22;69034;49.444;7.758;2023-11-19T19:27:43;14.60;67.30
79571;DHT22;69034;49.444;7.758;2023-11-19T19:31:44;14.40;67.60
79571;DHT22;69034;49.444;7.758;2023-11-19T19:35:47;14.30;67.90
79571;DHT22;69034;49.444;7.758;2023-11-19T19:39:47;14.20;68.10
79571;DHT22;69034;49.444;7.758;2023-11-19T19:43:48;14.10;68.20
79571;DHT22;69034;49.444;7.758;2023-11-19T19:47:49;14.00;68.30
79571;DHT22;69034;49.444;7.758;2023-11-19T19:51:50;14.00;68.40
79571;DHT22;69034;49.444;7.758;2023-11-19T19:55:52;13.90;68.50
79571;DHT22;69034;49.444;7.758;2023-11-19T19:59:55;14.00;68.90
79571;DHT22;69034;49.444;7.758;2023-11-19T20:03:56;14.00;68.70
79571;DHT22;69034;49.444;7.758;2023-11-19T20:07:58;13.90;68.90
79571;DHT22;69034;49.444;7.758;2023-11-19T20:11:59;13.80;69.00
79571;DHT22;69034;49.444;7.758;2023-11-19T20:16:01;13.70;69.00
79571;DHT22;69034;49.444;7.758;2023-11-19T20:20:03;13.70;69.10
79571;DHT22;69034;49.444;7.758;2023-11-19T20:24:06;13.70;69.10
79571;DHT22;69034;49.444;7.758;2023-11-19T20:28:07;13.60;69.10
79571;DHT22;69034;49.444;7.758;2023-11-19T20:32:08;13.60;69.20
79571;DHT22;69034;49.444;7.758;2023-11-19T20:36:09;13.60;69.20
79571;DHT22;69034;49.444;7.758;2023-11-19T20:40:10;13.60;69.20
79571;DHT22;69034;49.444;7.758;2023-11-19T20:44:12;13.60;69.30
79571;DHT22;69034;49.444;7.758;2023-11-19T20:48:16;13.60;69.30
79571;DHT22;69034;49.444;7.758;2023-11-19T20:52:18;13.60;69.30
79571;DHT22;69034;49.444;7.758;2023-11-19T20:56:20;13.80;70.40
79571;DHT22;69034;49.444;7.758;2023-11-19T21:00:21;14.20;69.40
79571;DHT22;69034;49.444;7.758;2023-11-19T21:04:21;14.10;69.40
79571;DHT22;69034;49.444;7.758;2023-11-19T21:08:23;14.00;69.70
79571;DHT22;69034;49.444;7.758;2023-11-19T21:12:24;13.90;69.90
79571;DHT22;69034;49.444;7.758;2023-11-19T21:16:25;13.80;69.90
79571;DHT22;69034;49.444;7.758;2023-11-19T21:20:26;13.80;69.90
79571;DHT22;69034;49.444;7.758;2023-11-19T21:24:27;13.80;70.00
79571;DHT22;69034;49.444;7.758;2023-11-19T21:28:29;13.80;69.90
79571;DHT22;69034;49.444;7.758;2023-11-19T21:32:33;13.80;69.90
79571;DHT22;69034;49.444;7.758;2023-11-19T21:36:34;13.70;70.00
79571;DHT22;69034;49.444;7.758;2023-11-19T21:40:35;13.70;70.00
79571;DHT22;69034;49.444;7.758;2023-11-19T21:44:35;13.70;70.00
79571;DHT22;69034;49.444;7.758;2023-11-19T21:48:39;13.60;70.10
79571;DHT22;69034;49.444;7.758;2023-11-19T21:52:39;13.80;70.00
79571;DHT22;69034;49.444;7.758;2023-11-19T21:56:40;14.00;69.60
79571;DHT22;69034;49.444;7.758;2023-11-19T22:00:41;14.10;69.20
79571;DHT22;69034;49.444;7.758;2023-11-19T22:05:19;14.20;68.90
79571;DHT22;69034;49.444;7.758;2023-11-19T22:09:54;14.30;68.60
79571;DHT22;69034;49.444;7.758;2023-11-19T22:13:55;14.40;68.40
79571;DHT22;69034;49.444;7.758;2023-11-19T22:17:56;14.40;68.30
79571;DHT22;69034;49.444;7.758;2023-11-19T22:21:57;14.40;68.10
79571;DHT22;69034;49.444;7.758;2023-11-19T22:25:58;14.40;68.00
79571;DHT22;69034;49.444;7.758;2023-11-19T22:29:58;14.40;68.00
79571;DHT22;69034;49.444;7.758;2023-11-19T22:34:00;14.50;67.90
79571;DHT22;69034;49.444;7.758;2023-11-19T22:38:00;14.50;67.80
79571;DHT22;69034;49.444;7.758;2023-11-19T22:42:01;14.50;67.70
79571;DHT22;69034;49.444;7.758;2023-11-19T22:46:02;14.50;67.60
79571;DHT22;69034;49.444;7.758;2023-11-19T22:50:03;14.50;67.60
79571;DHT22;69034;49.444;7.758;2023-11-19T22:54:08;14.40;67.60
79571;DHT22;69034;49.444;7.758;2023-11-19T22:58:09;14.30;67.70
79571;DHT22;69034;49.444;7.758;2023-11-19T23:02:09;14.10;68.10
79571;DHT22;69034;49.444;7.758;2023-11-19T23:06:10;13.90;68.50
79571;DHT22;69034;49.444;7.758;2023-11-19T23:10:12;13.80;68.80
79571;DHT22;69034;49.444;7.758;2023-11-19T23:14:13;13.60;69.00
79571;DHT22;69034;49.444;7.758;2023-11-19T23:18:13;13.50;69.30
79571;DHT22;69034;49.444;7.758;2023-11-19T23:22:14;13.40;69.40
79571;DHT22;69034;49.444;7.758;2023-11-19T23:26:15;13.40;69.60
79571;DHT22;69034;49.444;7.758;2023-11-19T23:30:15;13.30;69.70
79571;DHT22;69034;49.444;7.758;2023-11-19T23:34:16;13.30;69.80
79571;DHT22;69034;49.444;7.758;2023-11-19T23:38:17;13.20;69.90
79571;DHT22;69034;49.444;7.758;2023-11-19T23:42:18;13.20;70.00
79571;DHT22;69034;49.444;7.758;2023-11-19T23:46:20;13.20;70.10
79571;DHT22;69034;49.444;7.758;2023-11-19T23:50:21;13.20;70.10
79571;DHT22;69034;49.444;7.758;2023-11-19T23:54:23;13.20;70.20
79571;DHT22;69034;49.444;7.758;2023-11-19T23:58:24;13.10;70.30
